Buoy 46770

sailwx.info

Track history (hours):
 
Tides and Currents Weather Stations Pressure Air Temp Water Temp Dewpoint Dewpoint Depression Visibility Wind Speed Wind Dir Waves Ship Positions

Drifting buoy 46770

Last reported at 2016-Dec-08 07:00 UTC. Time now 2016-Dec-08 11:59 UTC.
Position N 38°50' W 141°50'.

Barometer 1013.6 mb
Water temperature 15.5 ° C

Date/timePositionNaut miles runAvg speedWind from/ knotsBaromVisibWave heightAir tempDewpointWater temp
2016-Dec-08 07:00N 38°50' W 141°50'0 0.0 1013.6 15.5
2016-Dec-08 06:00N 38°50' W 141°50'1 1.1 1012.9 15.5
2016-Dec-08 05:00N 38°50' W 141°52'1 0.8 1012.8 15.5
2016-Dec-08 04:00N 38°51' W 141°52'3 0.9 1012.0 15.6
2016-Dec-08 01:00N 38°52' W 141°55'2 1.5 1010.5 15.6
2016-Dec-08 00:00N 38°53' W 141°57'0 0.0 1010.0 15.6
2016-Dec-07 23:00N 38°53' W 141°57'0 0.0 1009.5 15.5
2016-Dec-07 22:00N 38°53' W 141°57'4 3.7 1009.5 15.6
2016-Dec-07 21:00N 38°53' W 142°02'0 0.2 1009.9 15.5
2016-Dec-07 19:00N 38°53' W 142°02'2 1.9 1009.6 15.5
2016-Dec-07 18:00N 38°53' W 142°05'2 2.4 1008.8 15.5
2016-Dec-07 17:00N 38°52' W 142°08'0 0.0 1007.9 15.5
2016-Dec-07 16:00N 38°52' W 142°08'2 1.9 1007.5 15.5
2016-Dec-07 15:00N 38°52' W 142°10'1 0.8 1006.8 15.6
2016-Dec-07 14:00N 38°52' W 142°11'2 2.4 1006.3 15.5
2016-Dec-07 13:00N 38°51' W 142°14'0 0.0 1006.4 15.5
2016-Dec-07 12:00N 38°51' W 142°14'5 5.3 1006.3 15.5
2016-Dec-07 11:00N 38°50' W 142°20'3 0.7 1006.2 15.5
2016-Dec-07 07:00N 38°48' W 142°23'0 0.0 1005.6 15.5
2016-Dec-07 06:00N 38°48' W 142°23'6 0.9 1005.3 15.5
2016-Dec-06 23:00N 38°45' W 142°30'1 0.3 1003.3 15.5
2016-Dec-06 21:00N 38°44' W 142°30'0 0.0 1004.6 15.4
2016-Dec-06 20:00N 38°44' W 142°30'2 2.0 1005.9 15.4
2016-Dec-06 19:00N 38°44' W 142°32'2 0.7 1006.0 15.5
2016-Dec-06 16:00N 38°43' W 142°35'2 1.5 1006.9 15.5
2016-Dec-06 15:00N 38°43' W 142°37'1 1.1 1007.4 15.4
2016-Dec-06 14:00N 38°42' W 142°38'2 1.8 1007.9 15.3
2016-Dec-06 13:00N 38°41' W 142°40'4 4.4 1008.6 15.3
2016-Dec-06 12:00N 38°37' W 142°41'4 4.4 1009.3 15.2
2016-Dec-06 11:00N 38°41' W 142°40'4 1.5 1010.2 15.2
2016-Dec-06 08:00N 38°37' W 142°41'1 0.6 1013.0 15.2
2016-Dec-06 07:00N 38°36' W 142°41'1 1.1 1013.9 15.2
2016-Dec-06 06:00N 38°35' W 142°43'1 0.8 1014.7 15.2
2016-Dec-06 05:00N 38°35' W 142°42'0 0.0 1014.9 15.2
2016-Dec-06 04:00N 38°35' W 142°42'1 0.4 1015.9 15.2
2016-Dec-06 02:00N 38°35' W 142°43'2 2.0 1016.5 15.3
2016-Dec-06 01:00N 38°35' W 142°45'0 0.0 1016.8 15.2
2016-Dec-06 00:00N 38°35' W 142°45'0 0.0 1017.3 15.2
2016-Dec-05 23:00N 38°35' W 142°45'2 2.0 1017.6 15.1
2016-Dec-05 22:00N 38°34' W 142°47'1 0.5 1018.3 15.1
2016-Dec-05 20:00N 38°34' W 142°49'1 0.4 1020.2 15.1
2016-Dec-05 18:00N 38°34' W 142°49'1 0.9 1020.2 15.1
2016-Dec-05 17:00N 38°34' W 142°50'1 0.9 1019.9 15.1
2016-Dec-05 16:00N 38°34' W 142°52'1 0.8 1020.4 15.2
2016-Dec-05 15:00N 38°33' W 142°51'0 0.5 1020.7 15.2
2016-Dec-05 14:00N 38°33' W 142°52'0 0.0 1020.5 15.2
2016-Dec-05 13:00N 38°33' W 142°52'4 4.2 1020.7 15.2
2016-Dec-05 12:00N 38°33' W 142°57'0 0.0 1021.4 15.2
2016-Dec-05 11:00N 38°33' W 142°57'0 0.0 1021.3 15.1
2016-Dec-05 07:00N 38°33' W 142°57'2 1.1 1023.7 15.1
2016-Dec-05 05:00N 38°34' W 142°59'2 0.8 1024.2 15.1
2016-Dec-05 03:00N 38°34' W 143°01'3 1.4 1023.7 15.1
2016-Dec-05 01:00N 38°33' W 143°05'1 0.3 1024.2 15.1
2016-Dec-04 22:00N 38°33' W 143°06'0 0.0 1025.1 15.1
2016-Dec-04 21:00N 38°33' W 143°06'1 0.6 1026.2 15.1
2016-Dec-04 19:00N 38°32' W 143°07'1 1.1 1026.8 15.1
2016-Dec-04 18:00N 38°32' W 143°08'0 0.0 1026.7 15.1
2016-Dec-04 17:00N 38°32' W 143°08'0 0.5 1026.4 15.1
2016-Dec-04 16:00N 38°32' W 143°09'1 0.9 1026.6 15.1
2016-Dec-04 15:00N 38°32' W 143°10'0 0.5 1026.4 15.1
2016-Dec-04 14:00N 38°32' W 143°10'2 2.0 1026.3 15.1
2016-Dec-04 13:00N 38°32' W 143°12'2 2.3 1026.5 15.1
2016-Dec-04 12:00N 38°32' W 143°15'2 2.4 1027.1 15.1
2016-Dec-04 11:00N 38°32' W 143°12'3 0.7 1027.4 15.1
2016-Dec-04 07:00N 38°33' W 143°15'1 0.8 1028.1 15.0
2016-Dec-04 06:00N 38°32' W 143°16'3 0.7 1028.2 15.0
2016-Dec-04 01:00N 38°32' W 143°20'2 1.5 1028.2 14.9
2016-Dec-04 00:00N 38°32' W 143°22'2 1.9 1028.2 14.9
2016-Dec-03 23:00N 38°30' W 143°22'0 0.0 1028.5 15.0
2016-Dec-03 22:00N 38°30' W 143°22'1 0.6 1029.2 14.9
2016-Dec-03 21:00N 38°31' W 143°22'0 0.2 1030.0 15.0
2016-Dec-03 19:00N 38°31' W 143°23'1 0.8 1031.0 15.0
2016-Dec-03 18:00N 38°30' W 143°23'1 0.6 1030.7 15.0
2016-Dec-03 17:00N 38°31' W 143°23'0 0.5 1030.1 15.2
2016-Dec-03 16:00N 38°31' W 143°24'0 0.5 1029.7 15.2
2016-Dec-03 15:00N 38°31' W 143°23'1 1.1 1029.4 15.1
2016-Dec-03 14:00N 38°30' W 143°25'0 0.0 1029.7 15.1
2016-Dec-03 13:00N 38°30' W 143°25'3 3.3 1030.3 15.1
2016-Dec-03 12:00N 38°29' W 143°29'0 0.0 1030.5 15.1
2016-Dec-03 11:00N 38°29' W 143°29'1 0.2 1031.1 15.2
2016-Dec-03 07:00N 38°30' W 143°28'1 0.8 1031.6 15.2
2016-Dec-03 06:00N 38°29' W 143°29'1 1.1 1031.7 15.2
2016-Dec-03 05:00N 38°29' W 143°30'0 0.0 1031.5 15.2
2016-Dec-03 04:00N 38°29' W 143°30'1 0.8 1031.3 15.2
2016-Dec-03 03:00N 38°28' W 143°31'1 1.3 1030.6 15.2
2016-Dec-03 02:00N 38°27' W 143°31'0 0.5 1030.3 15.2
2016-Dec-03 01:00N 38°27' W 143°32'0 0.0 1030.0 15.3
2016-Dec-03 00:00N 38°27' W 143°32'1 0.6 1029.9 15.2
2016-Dec-02 23:00N 38°26' W 143°32'0 0.0 1030.1 15.3
2016-Dec-02 22:00N 38°26' W 143°32'0 0.5 1030.3 15.3
2016-Dec-02 21:00N 38°26' W 143°31'1 0.3 1031.0 15.2
2016-Dec-02 19:00N 38°26' W 143°31'1 0.9 1032.2 15.2
2016-Dec-02 18:00N 38°26' W 143°32'0 0.0 1032.1 15.2
2016-Dec-02 17:00N 38°26' W 143°32'1 0.8 1031.6 15.2
2016-Dec-02 16:00N 38°25' W 143°33'0 0.0 1031.2 15.2
2016-Dec-02 15:00N 38°25' W 143°33'1 1.4 1030.7 15.2
2016-Dec-02 14:00N 38°25' W 143°35'0 0.0 1030.5 15.2
2016-Dec-02 13:00N 38°25' W 143°35'1 0.6 1030.1 15.2
2016-Dec-02 12:00N 38°25' W 143°35'2 2.4 1030.1 15.2
2016-Dec-02 11:00N 38°22' W 143°35'2 2.4 1030.4 15.2
2016-Dec-02 10:00N 38°25' W 143°35'2 1.2 1030.3 15.2
2016-Dec-02 08:00N 38°22' W 143°35'1 0.8 1030.9 15.2
2016-Dec-02 07:00N 38°22' W 143°35'0 0.0 1031.0 15.2
2016-Dec-02 06:00N 38°22' W 143°35'1 0.3 1030.9 15.2
2016-Dec-02 04:00N 38°21' W 143°35'0 0.0 1030.4 15.2
2016-Dec-02 03:00N 38°21' W 143°35'0 0.0 1030.5 15.2
2016-Dec-02 02:00N 38°21' W 143°35'1 0.9 1030.2 15.2
2016-Dec-02 01:00N 38°21' W 143°36'0 0.0 1030.1 15.2
2016-Dec-02 00:00N 38°21' W 143°36'0 0.5 1030.1 15.2
2016-Dec-01 23:00N 38°21' W 143°37'1 0.6 1030.2 15.3
2016-Dec-01 22:00N 38°22' W 143°37'1 0.6 1030.7 15.2
2016-Dec-01 20:00N 38°21' W 143°38'2 0.9 1031.9 15.2
2016-Dec-01 18:00N 38°19' W 143°38'0 0.0 1030.5 15.2
2016-Dec-01 17:00N 38°19' W 143°38'1 0.8 1030.0 15.2
2016-Dec-01 16:00N 38°19' W 143°39'1 0.6 1029.7 15.2
2016-Dec-01 15:00N 38°18' W 143°39'0 0.0 1029.6 15.2
2016-Dec-01 14:00N 38°18' W 143°39'1 1.2 1030.2 15.2
2016-Dec-01 13:00N 38°17' W 143°39'0 0.0 1030.6 15.2
2016-Dec-01 12:00N 38°17' W 143°39'1 0.8 1031.2 15.2
2016-Dec-01 11:00N 38°16' W 143°38'0 0.0 1031.5 15.3
2016-Dec-01 10:00N 38°16' W 143°38'1 0.4 1031.9 15.3
2016-Dec-01 07:00N 38°16' W 143°40'1 0.4 1032.2 15.3
2016-Dec-01 05:00N 38°15' W 143°39'0 0.0 1032.2 15.3
2016-Dec-01 03:00N 38°15' W 143°39'1 0.6 1031.2 15.3
2016-Dec-01 01:00N 38°16' W 143°40'0 0.0 1031.6 15.4
2016-Dec-01 00:00N 38°16' W 143°40'1 1.1 1031.5 15.4
2016-Nov-30 23:00N 38°15' W 143°41'0 0.5 1032.0 15.4
2016-Nov-30 22:00N 38°15' W 143°42'1 0.6 1032.8 15.4
2016-Nov-30 20:00N 38°14' W 143°42'2 0.9 1033.3 15.3
2016-Nov-30 18:00N 38°12' W 143°41'0 0.5 1033.1 15.3
2016-Nov-30 17:00N 38°12' W 143°42'1 0.8 1032.4 15.3
2016-Nov-30 16:00N 38°11' W 143°41'1 0.6 1032.3 15.3
2016-Nov-30 15:00N 38°12' W 143°41'1 0.6 1032.1 15.3
2016-Nov-30 14:00N 38°11' W 143°41'1 0.6 1031.9 15.3
2016-Nov-30 13:00N 38°12' W 143°41'0 0.0 1032.4 15.3
2016-Nov-30 12:00N 38°12' W 143°41'0 0.5 1031.8 15.3
2016-Nov-30 11:00N 38°12' W 143°41'0 0.0 1031.9 15.3
2016-Nov-30 10:00N 38°12' W 143°41'1 0.4 1032.4 15.3
2016-Nov-30 08:00N 38°11' W 143°41'0 0.0 1032.6 15.3
2016-Nov-30 07:00N 38°11' W 143°41'1 0.6 1032.6 15.3
2016-Nov-30 06:00N 38°12' W 143°41'0 0.0 1032.3 15.3
2016-Nov-30 03:00N 38°12' W 143°41'1 1.1 1030.9 15.4
2016-Nov-30 02:00N 38°11' W 143°43'0 0.0 1030.3 15.4
2016-Nov-30 01:00N 38°11' W 143°43'1 0.6 1029.6 15.4
2016-Nov-30 00:00N 38°11' W 143°43'0 0.0 1028.6 15.4
2016-Nov-29 23:00N 38°11' W 143°43'1 0.6 1028.7 15.4
2016-Nov-29 22:00N 38°10' W 143°43'0 0.0 1029.4 15.4
2016-Nov-29 21:00N 38°10' W 143°43'1 0.3 1029.9 15.3
2016-Nov-29 19:00N 38°10' W 143°43'0 0.0 1029.5 15.3
2016-Nov-29 18:00N 38°10' W 143°43'1 0.6 1028.8 15.3
2016-Nov-29 17:00N 38°09' W 143°43'1 0.8 1027.8 15.3
2016-Nov-29 16:00N 38°10' W 143°42'0 0.0 1027.0 15.3
2016-Nov-29 15:00N 38°10' W 143°42'1 0.6 1026.2 15.3
2016-Nov-29 14:00N 38°10' W 143°42'1 1.1 1025.4 15.2
2016-Nov-29 13:00N 38°11' W 143°43'1 0.8 1024.6 15.2
2016-Nov-29 12:00N 38°10' W 143°43'0 0.0 1024.0 15.2
2016-Nov-29 11:00N 38°10' W 143°43'2 0.4 1023.5 15.2
2016-Nov-29 07:00N 38°10' W 143°44'0 0.5 1022.6 15.3
2016-Nov-29 06:00N 38°10' W 143°45'0 0.0 1022.4 15.3
2016-Nov-29 05:00N 38°10' W 143°45'2 0.5 1023.7 15.3
2016-Nov-29 01:00N 38°08' W 143°47'0 0.0 1026.0 15.4
2016-Nov-29 00:00N 38°08' W 143°47'0 0.0 1026.5 15.3
2016-Nov-28 23:00N 38°08' W 143°47'0 0.0 1027.0 15.3
2016-Nov-28 22:00N 38°08' W 143°47'1 1.3 1028.0 15.3
2016-Nov-28 21:00N 38°07' W 143°47'1 0.6 1029.1 15.3
2016-Nov-28 20:00N 38°08' W 143°47'1 1.2 1029.8 15.3
2016-Nov-28 19:00N 38°07' W 143°47'0 0.0 1030.4 15.3
2016-Nov-28 18:00N 38°07' W 143°47'0 0.0 1030.5 15.3
2016-Nov-28 17:00N 38°07' W 143°47'0 0.5 1030.2 15.4
2016-Nov-28 16:00N 38°07' W 143°47'1 0.8 1029.9 15.4
2016-Nov-28 15:00N 38°06' W 143°47'0 0.0 1030.0 15.4
2016-Nov-28 14:00N 38°06' W 143°47'0 0.0 1030.2 15.4
2016-Nov-28 13:00N 38°06' W 143°47'0 0.0 1030.6 15.4
2016-Nov-28 12:00N 38°06' W 143°47'1 0.9 1030.7 15.4
2016-Nov-28 11:00N 38°06' W 143°49'0 0.0 1030.9 15.4
2016-Nov-28 07:00N 38°06' W 143°49'   1031.9 15.4
Track history (hours):
 
Tides and Currents Weather Stations Pressure Air Temp Water Temp Dewpoint Dewpoint Depression Visibility Wind Speed Wind Dir Waves Ship Positions

Drifting buoy 46770

Last reported at 2016-Dec-08 07:00 UTC. Time now 2016-Dec-08 11:59 UTC.
Position N 38°50' W 141°50'.

Barometer 1013.6 mb
Water temperature 15.5 ° C

Date/timePositionNaut miles runAvg speedWind from/ knotsBaromVisibWave heightAir tempDewpointWater temp
2016-Dec-08 07:00N 38°50' W 141°50'0 0.0 1013.6 15.5
2016-Dec-08 06:00N 38°50' W 141°50'1 1.1 1012.9 15.5
2016-Dec-08 05:00N 38°50' W 141°52'1 0.8 1012.8 15.5
2016-Dec-08 04:00N 38°51' W 141°52'3 0.9 1012.0 15.6
2016-Dec-08 01:00N 38°52' W 141°55'2 1.5 1010.5 15.6
2016-Dec-08 00:00N 38°53' W 141°57'0 0.0 1010.0 15.6
2016-Dec-07 23:00N 38°53' W 141°57'0 0.0 1009.5 15.5
2016-Dec-07 22:00N 38°53' W 141°57'4 3.7 1009.5 15.6
2016-Dec-07 21:00N 38°53' W 142°02'0 0.2 1009.9 15.5
2016-Dec-07 19:00N 38°53' W 142°02'2 1.9 1009.6 15.5
2016-Dec-07 18:00N 38°53' W 142°05'2 2.4 1008.8 15.5
2016-Dec-07 17:00N 38°52' W 142°08'0 0.0 1007.9 15.5
2016-Dec-07 16:00N 38°52' W 142°08'2 1.9 1007.5 15.5
2016-Dec-07 15:00N 38°52' W 142°10'1 0.8 1006.8 15.6
2016-Dec-07 14:00N 38°52' W 142°11'2 2.4 1006.3 15.5
2016-Dec-07 13:00N 38°51' W 142°14'0 0.0 1006.4 15.5
2016-Dec-07 12:00N 38°51' W 142°14'5 5.3 1006.3 15.5
2016-Dec-07 11:00N 38°50' W 142°20'3 0.7 1006.2 15.5
2016-Dec-07 07:00N 38°48' W 142°23'0 0.0 1005.6 15.5
2016-Dec-07 06:00N 38°48' W 142°23'6 0.9 1005.3 15.5
2016-Dec-06 23:00N 38°45' W 142°30'1 0.3 1003.3 15.5
2016-Dec-06 21:00N 38°44' W 142°30'0 0.0 1004.6 15.4
2016-Dec-06 20:00N 38°44' W 142°30'2 2.0 1005.9 15.4
2016-Dec-06 19:00N 38°44' W 142°32'2 0.7 1006.0 15.5
2016-Dec-06 16:00N 38°43' W 142°35'2 1.5 1006.9 15.5
2016-Dec-06 15:00N 38°43' W 142°37'1 1.1 1007.4 15.4
2016-Dec-06 14:00N 38°42' W 142°38'2 1.8 1007.9 15.3
2016-Dec-06 13:00N 38°41' W 142°40'4 4.4 1008.6 15.3
2016-Dec-06 12:00N 38°37' W 142°41'4 4.4 1009.3 15.2
2016-Dec-06 11:00N 38°41' W 142°40'4 1.5 1010.2 15.2
2016-Dec-06 08:00N 38°37' W 142°41'1 0.6 1013.0 15.2
2016-Dec-06 07:00N 38°36' W 142°41'1 1.1 1013.9 15.2
2016-Dec-06 06:00N 38°35' W 142°43'1 0.8 1014.7 15.2
2016-Dec-06 05:00N 38°35' W 142°42'0 0.0 1014.9 15.2
2016-Dec-06 04:00N 38°35' W 142°42'1 0.4 1015.9 15.2
2016-Dec-06 02:00N 38°35' W 142°43'2 2.0 1016.5 15.3
2016-Dec-06 01:00N 38°35' W 142°45'0 0.0 1016.8 15.2
2016-Dec-06 00:00N 38°35' W 142°45'0 0.0 1017.3 15.2
2016-Dec-05 23:00N 38°35' W 142°45'2 2.0 1017.6 15.1
2016-Dec-05 22:00N 38°34' W 142°47'1 0.5 1018.3 15.1
2016-Dec-05 20:00N 38°34' W 142°49'1 0.4 1020.2 15.1
2016-Dec-05 18:00N 38°34' W 142°49'1 0.9 1020.2 15.1
2016-Dec-05 17:00N 38°34' W 142°50'1 0.9 1019.9 15.1
2016-Dec-05 16:00N 38°34' W 142°52'1 0.8 1020.4 15.2
2016-Dec-05 15:00N 38°33' W 142°51'0 0.5 1020.7 15.2
2016-Dec-05 14:00N 38°33' W 142°52'0 0.0 1020.5 15.2
2016-Dec-05 13:00N 38°33' W 142°52'4 4.2 1020.7 15.2
2016-Dec-05 12:00N 38°33' W 142°57'0 0.0 1021.4 15.2
2016-Dec-05 11:00N 38°33' W 142°57'0 0.0 1021.3 15.1
2016-Dec-05 07:00N 38°33' W 142°57'2 1.1 1023.7 15.1
2016-Dec-05 05:00N 38°34' W 142°59'2 0.8 1024.2 15.1
2016-Dec-05 03:00N 38°34' W 143°01'3 1.4 1023.7 15.1
2016-Dec-05 01:00N 38°33' W 143°05'1 0.3 1024.2 15.1
2016-Dec-04 22:00N 38°33' W 143°06'0 0.0 1025.1 15.1
2016-Dec-04 21:00N 38°33' W 143°06'1 0.6 1026.2 15.1
2016-Dec-04 19:00N 38°32' W 143°07'1 1.1 1026.8 15.1
2016-Dec-04 18:00N 38°32' W 143°08'0 0.0 1026.7 15.1
2016-Dec-04 17:00N 38°32' W 143°08'0 0.5 1026.4 15.1
2016-Dec-04 16:00N 38°32' W 143°09'1 0.9 1026.6 15.1
2016-Dec-04 15:00N 38°32' W 143°10'0 0.5 1026.4 15.1
2016-Dec-04 14:00N 38°32' W 143°10'2 2.0 1026.3 15.1
2016-Dec-04 13:00N 38°32' W 143°12'2 2.3 1026.5 15.1
2016-Dec-04 12:00N 38°32' W 143°15'2 2.4 1027.1 15.1
2016-Dec-04 11:00N 38°32' W 143°12'3 0.7 1027.4 15.1
2016-Dec-04 07:00N 38°33' W 143°15'1 0.8 1028.1 15.0
2016-Dec-04 06:00N 38°32' W 143°16'3 0.7 1028.2 15.0
2016-Dec-04 01:00N 38°32' W 143°20'2 1.5 1028.2 14.9
2016-Dec-04 00:00N 38°32' W 143°22'2 1.9 1028.2 14.9
2016-Dec-03 23:00N 38°30' W 143°22'0 0.0 1028.5 15.0
2016-Dec-03 22:00N 38°30' W 143°22'1 0.6 1029.2 14.9
2016-Dec-03 21:00N 38°31' W 143°22'0 0.2 1030.0 15.0
2016-Dec-03 19:00N 38°31' W 143°23'1 0.8 1031.0 15.0
2016-Dec-03 18:00N 38°30' W 143°23'1 0.6 1030.7 15.0
2016-Dec-03 17:00N 38°31' W 143°23'0 0.5 1030.1 15.2
2016-Dec-03 16:00N 38°31' W 143°24'0 0.5 1029.7 15.2
2016-Dec-03 15:00N 38°31' W 143°23'1 1.1 1029.4 15.1
2016-Dec-03 14:00N 38°30' W 143°25'0 0.0 1029.7 15.1
2016-Dec-03 13:00N 38°30' W 143°25'3 3.3 1030.3 15.1
2016-Dec-03 12:00N 38°29' W 143°29'0 0.0 1030.5 15.1
2016-Dec-03 11:00N 38°29' W 143°29'1 0.2 1031.1 15.2
2016-Dec-03 07:00N 38°30' W 143°28'1 0.8 1031.6 15.2
2016-Dec-03 06:00N 38°29' W 143°29'1 1.1 1031.7 15.2
2016-Dec-03 05:00N 38°29' W 143°30'0 0.0 1031.5 15.2
2016-Dec-03 04:00N 38°29' W 143°30'1 0.8 1031.3 15.2
2016-Dec-03 03:00N 38°28' W 143°31'1 1.3 1030.6 15.2
2016-Dec-03 02:00N 38°27' W 143°31'0 0.5 1030.3 15.2
2016-Dec-03 01:00N 38°27' W 143°32'0 0.0 1030.0 15.3
2016-Dec-03 00:00N 38°27' W 143°32'1 0.6 1029.9 15.2
2016-Dec-02 23:00N 38°26' W 143°32'0 0.0 1030.1 15.3
2016-Dec-02 22:00N 38°26' W 143°32'0 0.5 1030.3 15.3
2016-Dec-02 21:00N 38°26' W 143°31'1 0.3 1031.0 15.2
2016-Dec-02 19:00N 38°26' W 143°31'1 0.9 1032.2 15.2
2016-Dec-02 18:00N 38°26' W 143°32'0 0.0 1032.1 15.2
2016-Dec-02 17:00N 38°26' W 143°32'1 0.8 1031.6 15.2
2016-Dec-02 16:00N 38°25' W 143°33'0 0.0 1031.2 15.2
2016-Dec-02 15:00N 38°25' W 143°33'1 1.4 1030.7 15.2
2016-Dec-02 14:00N 38°25' W 143°35'0 0.0 1030.5 15.2
2016-Dec-02 13:00N 38°25' W 143°35'1 0.6 1030.1 15.2
2016-Dec-02 12:00N 38°25' W 143°35'2 2.4 1030.1 15.2
2016-Dec-02 11:00N 38°22' W 143°35'2 2.4 1030.4 15.2
2016-Dec-02 10:00N 38°25' W 143°35'2 1.2 1030.3 15.2
2016-Dec-02 08:00N 38°22' W 143°35'1 0.8 1030.9 15.2
2016-Dec-02 07:00N 38°22' W 143°35'0 0.0 1031.0 15.2
2016-Dec-02 06:00N 38°22' W 143°35'1 0.3 1030.9 15.2
2016-Dec-02 04:00N 38°21' W 143°35'0 0.0 1030.4 15.2
2016-Dec-02 03:00N 38°21' W 143°35'0 0.0 1030.5 15.2
2016-Dec-02 02:00N 38°21' W 143°35'1 0.9 1030.2 15.2
2016-Dec-02 01:00N 38°21' W 143°36'0 0.0 1030.1 15.2
2016-Dec-02 00:00N 38°21' W 143°36'0 0.5 1030.1 15.2
2016-Dec-01 23:00N 38°21' W 143°37'1 0.6 1030.2 15.3
2016-Dec-01 22:00N 38°22' W 143°37'1 0.6 1030.7 15.2
2016-Dec-01 20:00N 38°21' W 143°38'2 0.9 1031.9 15.2
2016-Dec-01 18:00N 38°19' W 143°38'0 0.0 1030.5 15.2
2016-Dec-01 17:00N 38°19' W 143°38'1 0.8 1030.0 15.2
2016-Dec-01 16:00N 38°19' W 143°39'1 0.6 1029.7 15.2
2016-Dec-01 15:00N 38°18' W 143°39'0 0.0 1029.6 15.2
2016-Dec-01 14:00N 38°18' W 143°39'1 1.2 1030.2 15.2
2016-Dec-01 13:00N 38°17' W 143°39'0 0.0 1030.6 15.2
2016-Dec-01 12:00N 38°17' W 143°39'1 0.8 1031.2 15.2
2016-Dec-01 11:00N 38°16' W 143°38'0 0.0 1031.5 15.3
2016-Dec-01 10:00N 38°16' W 143°38'1 0.4 1031.9 15.3
2016-Dec-01 07:00N 38°16' W 143°40'1 0.4 1032.2 15.3
2016-Dec-01 05:00N 38°15' W 143°39'0 0.0 1032.2 15.3
2016-Dec-01 03:00N 38°15' W 143°39'1 0.6 1031.2 15.3
2016-Dec-01 01:00N 38°16' W 143°40'0 0.0 1031.6 15.4
2016-Dec-01 00:00N 38°16' W 143°40'1 1.1 1031.5 15.4
2016-Nov-30 23:00N 38°15' W 143°41'0 0.5 1032.0 15.4
2016-Nov-30 22:00N 38°15' W 143°42'1 0.6 1032.8 15.4
2016-Nov-30 20:00N 38°14' W 143°42'2 0.9 1033.3 15.3
2016-Nov-30 18:00N 38°12' W 143°41'0 0.5 1033.1 15.3
2016-Nov-30 17:00N 38°12' W 143°42'1 0.8 1032.4 15.3
2016-Nov-30 16:00N 38°11' W 143°41'1 0.6 1032.3 15.3
2016-Nov-30 15:00N 38°12' W 143°41'1 0.6 1032.1 15.3
2016-Nov-30 14:00N 38°11' W 143°41'1 0.6 1031.9 15.3
2016-Nov-30 13:00N 38°12' W 143°41'0 0.0 1032.4 15.3
2016-Nov-30 12:00N 38°12' W 143°41'0 0.5 1031.8 15.3
2016-Nov-30 11:00N 38°12' W 143°41'0 0.0 1031.9 15.3
2016-Nov-30 10:00N 38°12' W 143°41'1 0.4 1032.4 15.3
2016-Nov-30 08:00N 38°11' W 143°41'0 0.0 1032.6 15.3
2016-Nov-30 07:00N 38°11' W 143°41'1 0.6 1032.6 15.3
2016-Nov-30 06:00N 38°12' W 143°41'0 0.0 1032.3 15.3
2016-Nov-30 03:00N 38°12' W 143°41'1 1.1 1030.9 15.4
2016-Nov-30 02:00N 38°11' W 143°43'0 0.0 1030.3 15.4
2016-Nov-30 01:00N 38°11' W 143°43'1 0.6 1029.6 15.4
2016-Nov-30 00:00N 38°11' W 143°43'0 0.0 1028.6 15.4
2016-Nov-29 23:00N 38°11' W 143°43'1 0.6 1028.7 15.4
2016-Nov-29 22:00N 38°10' W 143°43'0 0.0 1029.4 15.4
2016-Nov-29 21:00N 38°10' W 143°43'1 0.3 1029.9 15.3
2016-Nov-29 19:00N 38°10' W 143°43'0 0.0 1029.5 15.3
2016-Nov-29 18:00N 38°10' W 143°43'1 0.6 1028.8 15.3
2016-Nov-29 17:00N 38°09' W 143°43'1 0.8 1027.8 15.3
2016-Nov-29 16:00N 38°10' W 143°42'0 0.0 1027.0 15.3
2016-Nov-29 15:00N 38°10' W 143°42'1 0.6 1026.2 15.3
2016-Nov-29 14:00N 38°10' W 143°42'1 1.1 1025.4 15.2
2016-Nov-29 13:00N 38°11' W 143°43'1 0.8 1024.6 15.2
2016-Nov-29 12:00N 38°10' W 143°43'0 0.0 1024.0 15.2
2016-Nov-29 11:00N 38°10' W 143°43'2 0.4 1023.5 15.2
2016-Nov-29 07:00N 38°10' W 143°44'0 0.5 1022.6 15.3
2016-Nov-29 06:00N 38°10' W 143°45'0 0.0 1022.4 15.3
2016-Nov-29 05:00N 38°10' W 143°45'2 0.5 1023.7 15.3
2016-Nov-29 01:00N 38°08' W 143°47'0 0.0 1026.0 15.4
2016-Nov-29 00:00N 38°08' W 143°47'0 0.0 1026.5 15.3
2016-Nov-28 23:00N 38°08' W 143°47'0 0.0 1027.0 15.3
2016-Nov-28 22:00N 38°08' W 143°47'1 1.3 1028.0 15.3
2016-Nov-28 21:00N 38°07' W 143°47'1 0.6 1029.1 15.3
2016-Nov-28 20:00N 38°08' W 143°47'1 1.2 1029.8 15.3
2016-Nov-28 19:00N 38°07' W 143°47'0 0.0 1030.4 15.3
2016-Nov-28 18:00N 38°07' W 143°47'0 0.0 1030.5 15.3
2016-Nov-28 17:00N 38°07' W 143°47'0 0.5 1030.2 15.4
2016-Nov-28 16:00N 38°07' W 143°47'1 0.8 1029.9 15.4
2016-Nov-28 15:00N 38°06' W 143°47'0 0.0 1030.0 15.4
2016-Nov-28 14:00N 38°06' W 143°47'0 0.0 1030.2 15.4
2016-Nov-28 13:00N 38°06' W 143°47'0 0.0 1030.6 15.4
2016-Nov-28 12:00N 38°06' W 143°47'1 0.9 1030.7 15.4
2016-Nov-28 11:00N 38°06' W 143°49'0 0.0 1030.9 15.4
2016-Nov-28 07:00N 38°06' W 143°49'   1031.9 15.4

Dump ship's entire track history